sensor_id;sensor_type;location;lat;lon;timestamp;pressure;altitude;pressure_sealevel;temperature;humidity
60465;BME280;46314;52.392;9.758;2023-01-27T00:00:41;101565.34;;;5.10;89.29
60465;BME280;46314;52.392;9.758;2023-01-27T00:03:10;101563.66;;;5.09;89.15
60465;BME280;46314;52.392;9.758;2023-01-27T00:05:37;101562.66;;;4.75;90.24
60465;BME280;46314;52.392;9.758;2023-01-27T00:08:05;101553.78;;;4.14;94.31
60465;BME280;46314;52.392;9.758;2023-01-27T00:10:31;101567.06;;;4.41;95.30
60465;BME280;46314;52.392;9.758;2023-01-27T00:12:58;101561.44;;;4.71;92.26
60465;BME280;46314;52.392;9.758;2023-01-27T00:15:24;101553.84;;;5.13;90.45
60465;BME280;46314;52.392;9.758;2023-01-27T00:17:51;101551.94;;;5.14;89.93
60465;BME280;46314;52.392;9.758;2023-01-27T00:20:18;101552.84;;;4.55;95.51
60465;BME280;46314;52.392;9.758;2023-01-27T00:22:44;101546.28;;;4.45;94.15
60465;BME280;46314;52.392;9.758;2023-01-27T00:25:12;101542.78;;;4.97;92.02
60465;BME280;46314;52.392;9.758;2023-01-27T00:27:38;101542.25;;;5.11;90.50
60465;BME280;46314;52.392;9.758;2023-01-27T00:30:06;101543.72;;;4.90;91.38
60465;BME280;46314;52.392;9.758;2023-01-27T00:32:33;101543.47;;;5.04;90.70
60465;BME280;46314;52.392;9.758;2023-01-27T00:34:59;101547.34;;;4.55;92.59
60465;BME280;46314;52.392;9.758;2023-01-27T00:37:26;101549.16;;;4.73;92.38
60465;BME280;46314;52.392;9.758;2023-01-27T00:39:52;101543.84;;;4.96;91.78
60465;BME280;46314;52.392;9.758;2023-01-27T00:42:20;101554.13;;;5.00;91.02
60465;BME280;46314;52.392;9.758;2023-01-27T00:44:46;101555.06;;;5.18;90.07
60465;BME280;46314;52.392;9.758;2023-01-27T00:47:13;101552.41;;;5.23;89.56
60465;BME280;46314;52.392;9.758;2023-01-27T00:49:39;101554.69;;;5.26;89.59
60465;BME280;46314;52.392;9.758;2023-01-27T00:52:05;101551.94;;;5.26;89.36
60465;BME280;46314;52.392;9.758;2023-01-27T00:54:32;101558.47;;;4.96;90.75
60465;BME280;46314;52.392;9.758;2023-01-27T00:56:58;101560.44;;;5.12;90.02
60465;BME280;46314;52.392;9.758;2023-01-27T00:59:26;101565.56;;;5.21;89.77
60465;BME280;46314;52.392;9.758;2023-01-27T01:01:53;101570.31;;;5.25;90.00
60465;BME280;46314;52.392;9.758;2023-01-27T01:04:19;101569.22;;;5.38;89.62
60465;BME280;46314;52.392;9.758;2023-01-27T01:06:45;101574.00;;;5.31;89.53
60465;BME280;46314;52.392;9.758;2023-01-27T01:09:12;101581.88;;;5.39;89.46
60465;BME280;46314;52.392;9.758;2023-01-27T01:11:38;101584.19;;;5.30;89.44
60465;BME280;46314;52.392;9.758;2023-01-27T01:14:05;101576.97;;;5.41;89.24
60465;BME280;46314;52.392;9.758;2023-01-27T01:16:32;101580.94;;;5.45;89.29
60465;BME280;46314;52.392;9.758;2023-01-27T01:18:59;101585.44;;;5.52;89.08
60465;BME280;46314;52.392;9.758;2023-01-27T01:21:25;101591.13;;;5.33;89.38
60465;BME280;46314;52.392;9.758;2023-01-27T01:23:52;101583.06;;;5.43;89.88
60465;BME280;46314;52.392;9.758;2023-01-27T01:26:18;101592.13;;;5.56;89.16
60465;BME280;46314;52.392;9.758;2023-01-27T01:28:45;101589.34;;;5.56;88.92
60465;BME280;46314;52.392;9.758;2023-01-27T01:31:13;101592.53;;;5.47;89.17
60465;BME280;46314;52.392;9.758;2023-01-27T01:33:42;101595.66;;;5.39;89.49
60465;BME280;46314;52.392;9.758;2023-01-27T01:36:10;101603.53;;;5.47;89.48
60465;BME280;46314;52.392;9.758;2023-01-27T01:38:37;101595.72;;;5.56;89.21
60465;BME280;46314;52.392;9.758;2023-01-27T01:41:05;101593.69;;;5.52;89.22
60465;BME280;46314;52.392;9.758;2023-01-27T01:43:32;101599.88;;;5.59;88.89
60465;BME280;46314;52.392;9.758;2023-01-27T01:45:59;101590.34;;;5.49;89.09
60465;BME280;46314;52.392;9.758;2023-01-27T01:48:32;101588.66;;;5.48;89.18
60465;BME280;46314;52.392;9.758;2023-01-27T01:51:04;101593.22;;;5.55;89.38
60465;BME280;46314;52.392;9.758;2023-01-27T01:53:36;101602.09;;;5.45;89.81
60465;BME280;46314;52.392;9.758;2023-01-27T01:56:09;101606.88;;;5.49;89.50
60465;BME280;46314;52.392;9.758;2023-01-27T01:58:36;101599.06;;;5.58;89.47
60465;BME280;46314;52.392;9.758;2023-01-27T02:01:04;101595.59;;;5.63;89.28
60465;BME280;46314;52.392;9.758;2023-01-27T02:03:33;101597.94;;;5.71;88.70
60465;BME280;46314;52.392;9.758;2023-01-27T02:06:01;101600.88;;;5.53;89.36
60465;BME280;46314;52.392;9.758;2023-01-27T02:08:29;101592.31;;;5.66;89.02
60465;BME280;46314;52.392;9.758;2023-01-27T02:10:59;101600.28;;;5.50;89.47
60465;BME280;46314;52.392;9.758;2023-01-27T02:13:25;101596.91;;;5.60;89.48
60465;BME280;46314;52.392;9.758;2023-01-27T02:15:53;101598.47;;;5.56;89.40
60465;BME280;46314;52.392;9.758;2023-01-27T02:18:20;101594.03;;;5.55;89.40
60465;BME280;46314;52.392;9.758;2023-01-27T02:20:48;101601.00;;;5.46;90.06
60465;BME280;46314;52.392;9.758;2023-01-27T02:23:26;101598.22;;;5.58;89.73
60465;BME280;46314;52.392;9.758;2023-01-27T02:26:01;101595.84;;;5.49;89.72
60465;BME280;46314;52.392;9.758;2023-01-27T02:28:30;101595.63;;;5.51;89.69
60465;BME280;46314;52.392;9.758;2023-01-27T02:30:57;101590.16;;;5.68;89.43
60465;BME280;46314;52.392;9.758;2023-01-27T02:33:24;101599.06;;;5.18;91.66
60465;BME280;46314;52.392;9.758;2023-01-27T02:35:57;101597.28;;;5.52;89.98
60465;BME280;46314;52.392;9.758;2023-01-27T02:38:26;101588.44;;;5.50;90.38
60465;BME280;46314;52.392;9.758;2023-01-27T02:40:58;101591.19;;;5.50;90.04
60465;BME280;46314;52.392;9.758;2023-01-27T02:43:26;101595.59;;;5.63;89.67
60465;BME280;46314;52.392;9.758;2023-01-27T02:45:53;101582.91;;;5.62;89.39
60465;BME280;46314;52.392;9.758;2023-01-27T02:48:19;101594.53;;;5.52;89.81
60465;BME280;46314;52.392;9.758;2023-01-27T02:50:46;101589.72;;;5.59;90.32
60465;BME280;46314;52.392;9.758;2023-01-27T02:53:12;101599.25;;;5.68;89.51
60465;BME280;46314;52.392;9.758;2023-01-27T02:55:39;101603.75;;;5.58;90.01
60465;BME280;46314;52.392;9.758;2023-01-27T02:58:06;101603.13;;;5.56;90.03
60465;BME280;46314;52.392;9.758;2023-01-27T03:00:33;101615.63;;;5.75;90.08
60465;BME280;46314;52.392;9.758;2023-01-27T03:03:00;101614.19;;;5.73;89.95
60465;BME280;46314;52.392;9.758;2023-01-27T03:05:27;101619.66;;;5.84;89.51
60465;BME280;46314;52.392;9.758;2023-01-27T03:07:53;101614.94;;;5.68;89.53
60465;BME280;46314;52.392;9.758;2023-01-27T03:10:20;101610.16;;;5.63;89.79
60465;BME280;46314;52.392;9.758;2023-01-27T03:12:46;101609.47;;;5.56;90.89
60465;BME280;46314;52.392;9.758;2023-01-27T03:15:14;101614.09;;;5.67;89.96
60465;BME280;46314;52.392;9.758;2023-01-27T03:17:41;101619.47;;;5.74;89.86
60465;BME280;46314;52.392;9.758;2023-01-27T03:20:09;101614.91;;;5.27;92.15
60465;BME280;46314;52.392;9.758;2023-01-27T03:22:35;101625.94;;;5.68;90.38
60465;BME280;46314;52.392;9.758;2023-01-27T03:25:02;101617.88;;;5.78;89.71
60465;BME280;46314;52.392;9.758;2023-01-27T03:27:29;101621.88;;;5.71;89.85
60465;BME280;46314;52.392;9.758;2023-01-27T03:29:55;101626.47;;;5.82;89.84
60465;BME280;46314;52.392;9.758;2023-01-27T03:32:25;101621.63;;;5.72;89.32
60465;BME280;46314;52.392;9.758;2023-01-27T03:34:51;101617.41;;;5.81;89.36
60465;BME280;46314;52.392;9.758;2023-01-27T03:37:18;101622.31;;;5.79;89.11
60465;BME280;46314;52.392;9.758;2023-01-27T03:39:44;101614.78;;;5.75;89.90
60465;BME280;46314;52.392;9.758;2023-01-27T03:42:11;101614.19;;;5.73;90.34
60465;BME280;46314;52.392;9.758;2023-01-27T03:44:37;101617.41;;;5.81;89.55
60465;BME280;46314;52.392;9.758;2023-01-27T03:47:04;101628.19;;;5.71;90.75
60465;BME280;46314;52.392;9.758;2023-01-27T03:49:31;101621.41;;;5.62;91.23
60465;BME280;46314;52.392;9.758;2023-01-27T03:51:58;101620.81;;;5.07;92.94
60465;BME280;46314;52.392;9.758;2023-01-27T03:54:24;101625.78;;;5.46;93.18
60465;BME280;46314;52.392;9.758;2023-01-27T03:56:51;101619.13;;;5.71;91.29
60465;BME280;46314;52.392;9.758;2023-01-27T03:59:17;101617.41;;;5.81;90.60
60465;BME280;46314;52.392;9.758;2023-01-27T04:01:44;101621.44;;;4.74;95.73
60465;BME280;46314;52.392;9.758;2023-01-27T04:04:10;101626.19;;;5.26;94.58
60465;BME280;46314;52.392;9.758;2023-01-27T04:06:39;101620.19;;;5.29;94.45
60465;BME280;46314;52.392;9.758;2023-01-27T04:09:07;101628.78;;;5.73;91.96
60465;BME280;46314;52.392;9.758;2023-01-27T04:11:34;101622.72;;;5.59;92.63
60465;BME280;46314;52.392;9.758;2023-01-27T04:14:01;101629.66;;;5.74;91.62
60465;BME280;46314;52.392;9.758;2023-01-27T04:16:28;101635.53;;;5.94;90.36
60465;BME280;46314;52.392;9.758;2023-01-27T04:18:55;101631.03;;;5.88;90.82
60465;BME280;46314;52.392;9.758;2023-01-27T04:21:23;101625.28;;;5.90;90.33
60465;BME280;46314;52.392;9.758;2023-01-27T04:23:51;101636.91;;;5.80;90.58
60465;BME280;46314;52.392;9.758;2023-01-27T04:26:17;101640.94;;;5.89;90.28
60465;BME280;46314;52.392;9.758;2023-01-27T04:28:44;101642.50;;;5.97;89.99
60465;BME280;46314;52.392;9.758;2023-01-27T04:31:11;101644.19;;;5.86;90.40
60465;BME280;46314;52.392;9.758;2023-01-27T04:33:38;101650.63;;;5.92;90.49
60465;BME280;46314;52.392;9.758;2023-01-27T04:36:04;101644.69;;;5.30;91.60
60465;BME280;46314;52.392;9.758;2023-01-27T04:38:31;101650.66;;;5.80;91.67
60465;BME280;46314;52.392;9.758;2023-01-27T04:40:59;101652.91;;;5.95;90.66
60465;BME280;46314;52.392;9.758;2023-01-27T04:43:25;101655.03;;;5.93;90.29
60465;BME280;46314;52.392;9.758;2023-01-27T04:45:52;101655.47;;;5.84;91.03
60465;BME280;46314;52.392;9.758;2023-01-27T04:48:18;101657.34;;;5.43;92.70
60465;BME280;46314;52.392;9.758;2023-01-27T04:50:45;101654.34;;;5.85;91.69
60465;BME280;46314;52.392;9.758;2023-01-27T04:53:11;101656.72;;;5.94;90.88
60465;BME280;46314;52.392;9.758;2023-01-27T04:55:38;101664.63;;;6.02;90.48
60465;BME280;46314;52.392;9.758;2023-01-27T04:58:06;101666.19;;;5.98;90.50
60465;BME280;46314;52.392;9.758;2023-01-27T05:00:32;101660.59;;;5.40;91.61
60465;BME280;46314;52.392;9.758;2023-01-27T05:02:59;101669.59;;;5.76;91.83
60465;BME280;46314;52.392;9.758;2023-01-27T05:05:26;101675.22;;;4.93;97.15
60465;BME280;46314;52.392;9.758;2023-01-27T05:07:52;101671.97;;;4.73;96.98
60465;BME280;46314;52.392;9.758;2023-01-27T05:10:18;101678.09;;;5.10;97.62
60465;BME280;46314;52.392;9.758;2023-01-27T05:12:45;101688.03;;;5.00;96.34
60465;BME280;46314;52.392;9.758;2023-01-27T05:15:13;101678.06;;;4.87;98.27
60465;BME280;46314;52.392;9.758;2023-01-27T05:17:40;101688.94;;;5.29;95.67
60465;BME280;46314;52.392;9.758;2023-01-27T05:20:07;101683.19;;;4.17;100.00
60465;BME280;46314;52.392;9.758;2023-01-27T05:22:34;101695.66;;;5.33;97.26
60465;BME280;46314;52.392;9.758;2023-01-27T05:25:00;101686.44;;;5.39;96.25
60465;BME280;46314;52.392;9.758;2023-01-27T05:27:27;101683.44;;;5.29;94.81
60465;BME280;46314;52.392;9.758;2023-01-27T05:29:53;101692.63;;;4.64;100.00
60465;BME280;46314;52.392;9.758;2023-01-27T05:32:21;101699.97;;;5.17;96.43
60465;BME280;46314;52.392;9.758;2023-01-27T05:34:48;101701.16;;;5.33;98.39
60465;BME280;46314;52.392;9.758;2023-01-27T05:37:14;101698.22;;;5.75;94.73
60465;BME280;46314;52.392;9.758;2023-01-27T05:39:41;101690.88;;;4.93;100.00
60465;BME280;46314;52.392;9.758;2023-01-27T05:42:07;101693.81;;;5.62;95.95
60465;BME280;46314;52.392;9.758;2023-01-27T05:44:33;101697.44;;;4.68;98.78
60465;BME280;46314;52.392;9.758;2023-01-27T05:47:00;101698.19;;;4.87;100.00
60465;BME280;46314;52.392;9.758;2023-01-27T05:49:28;101706.47;;;5.75;95.82
60465;BME280;46314;52.392;9.758;2023-01-27T05:51:54;101706.91;;;4.96;98.67
60465;BME280;46314;52.392;9.758;2023-01-27T05:54:21;101706.25;;;5.65;95.61
60465;BME280;46314;52.392;9.758;2023-01-27T05:56:47;101718.25;;;6.11;93.36
60465;BME280;46314;52.392;9.758;2023-01-27T05:59:14;101721.78;;;5.83;93.89
60465;BME280;46314;52.392;9.758;2023-01-27T06:01:40;101716.94;;;5.02;98.01
60465;BME280;46314;52.392;9.758;2023-01-27T06:04:07;101719.78;;;5.66;95.80
60465;BME280;46314;52.392;9.758;2023-01-27T06:06:35;101727.72;;;5.92;93.50
60465;BME280;46314;52.392;9.758;2023-01-27T06:09:02;101727.47;;;5.53;96.57
60465;BME280;46314;52.392;9.758;2023-01-27T06:11:29;101727.50;;;4.21;100.00
60465;BME280;46314;52.392;9.758;2023-01-27T06:13:55;101730.09;;;5.00;100.00
60465;BME280;46314;52.392;9.758;2023-01-27T06:16:22;101734.66;;;4.52;100.00
60465;BME280;46314;52.392;9.758;2023-01-27T06:18:48;101730.53;;;4.73;100.00
60465;BME280;46314;52.392;9.758;2023-01-27T06:21:15;101730.38;;;4.57;100.00
60465;BME280;46314;52.392;9.758;2023-01-27T06:23:43;101735.25;;;5.08;100.00
60465;BME280;46314;52.392;9.758;2023-01-27T06:26:12;101731.28;;;4.92;98.04
60465;BME280;46314;52.392;9.758;2023-01-27T06:28:39;101734.63;;;4.83;100.00
60465;BME280;46314;52.392;9.758;2023-01-27T06:31:07;101738.34;;;5.47;97.02
60465;BME280;46314;52.392;9.758;2023-01-27T06:33:34;101727.78;;;4.01;100.00
60465;BME280;46314;52.392;9.758;2023-01-27T06:36:02;101735.38;;;3.99;100.00
60465;BME280;46314;52.392;9.758;2023-01-27T06:38:29;101736.97;;;3.76;100.00
60465;BME280;46314;52.392;9.758;2023-01-27T06:40:58;101738.31;;;3.67;100.00
60465;BME280;46314;52.392;9.758;2023-01-27T06:43:25;101740.19;;;3.85;100.00
60465;BME280;46314;52.392;9.758;2023-01-27T06:45:51;101742.03;;;4.40;100.00
60465;BME280;46314;52.392;9.758;2023-01-27T06:48:18;101737.28;;;4.47;100.00
60465;BME280;46314;52.392;9.758;2023-01-27T06:50:45;101744.56;;;4.53;100.00
60465;BME280;46314;52.392;9.758;2023-01-27T06:53:11;101737.59;;;4.81;100.00
60465;BME280;46314;52.392;9.758;2023-01-27T06:55:38;101749.69;;;4.20;100.00
60465;BME280;46314;52.392;9.758;2023-01-27T06:58:06;101752.53;;;4.13;100.00
60465;BME280;46314;52.392;9.758;2023-01-27T07:00:33;101755.53;;;3.93;100.00
60465;BME280;46314;52.392;9.758;2023-01-27T07:02:59;101760.81;;;3.57;100.00
60465;BME280;46314;52.392;9.758;2023-01-27T07:05:26;101763.16;;;3.72;100.00
60465;BME280;46314;52.392;9.758;2023-01-27T07:07:52;101770.25;;;3.43;100.00
60465;BME280;46314;52.392;9.758;2023-01-27T07:10:19;101765.19;;;4.14;100.00
60465;BME280;46314;52.392;9.758;2023-01-27T07:12:46;101762.56;;;4.68;100.00
60465;BME280;46314;52.392;9.758;2023-01-27T07:15:14;101774.09;;;5.24;100.00
60465;BME280;46314;52.392;9.758;2023-01-27T07:17:40;101785.59;;;4.36;100.00
60465;BME280;46314;52.392;9.758;2023-01-27T07:20:10;101788.44;;;5.02;100.00
60465;BME280;46314;52.392;9.758;2023-01-27T07:22:38;101788.09;;;5.10;98.19
60465;BME280;46314;52.392;9.758;2023-01-27T07:25:05;101788.25;;;3.94;100.00
60465;BME280;46314;52.392;9.758;2023-01-27T07:27:32;101792.19;;;3.98;100.00
60465;BME280;46314;52.392;9.758;2023-01-27T07:29:58;101799.53;;;3.68;100.00
60465;BME280;46314;52.392;9.758;2023-01-27T07:32:26;101802.16;;;3.56;100.00
60465;BME280;46314;52.392;9.758;2023-01-27T07:34:54;101809.75;;;3.79;100.00
60465;BME280;46314;52.392;9.758;2023-01-27T07:37:20;101800.19;;;3.63;100.00
60465;BME280;46314;52.392;9.758;2023-01-27T07:39:47;101809.50;;;4.78;100.00
60465;BME280;46314;52.392;9.758;2023-01-27T07:42:13;101810.78;;;4.33;100.00
60465;BME280;46314;52.392;9.758;2023-01-27T07:44:39;101804.56;;;3.89;100.00
60465;BME280;46314;52.392;9.758;2023-01-27T07:47:06;101808.31;;;4.13;100.00
60465;BME280;46314;52.392;9.758;2023-01-27T07:49:34;101812.47;;;3.79;100.00
60465;BME280;46314;52.392;9.758;2023-01-27T07:52:00;101817.91;;;4.53;100.00
60465;BME280;46314;52.392;9.758;2023-01-27T07:54:27;101819.31;;;4.44;100.00
60465;BME280;46314;52.392;9.758;2023-01-27T07:56:53;101816.13;;;5.55;96.97
60465;BME280;46314;52.392;9.758;2023-01-27T07:59:19;101827.78;;;4.42;99.75
60465;BME280;46314;52.392;9.758;2023-01-27T08:01:46;101832.13;;;5.34;96.29
60465;BME280;46314;52.392;9.758;2023-01-27T08:04:13;101831.91;;;3.77;100.00
60465;BME280;46314;52.392;9.758;2023-01-27T08:06:41;101833.75;;;4.69;100.00
60465;BME280;46314;52.392;9.758;2023-01-27T08:09:08;101841.44;;;4.30;99.29
60465;BME280;46314;52.392;9.758;2023-01-27T08:11:34;101842.91;;;4.93;98.45
60465;BME280;46314;52.392;9.758;2023-01-27T08:14:01;101846.38;;;4.59;97.92
60465;BME280;46314;52.392;9.758;2023-01-27T08:16:28;101843.94;;;5.11;97.98
60465;BME280;46314;52.392;9.758;2023-01-27T08:18:55;101845.84;;;5.10;93.50
60465;BME280;46314;52.392;9.758;2023-01-27T08:21:21;101853.47;;;4.66;97.03
60465;BME280;46314;52.392;9.758;2023-01-27T08:23:49;101856.97;;;4.85;95.65
60465;BME280;46314;52.392;9.758;2023-01-27T08:26:16;101851.34;;;5.22;96.77
60465;BME280;46314;52.392;9.758;2023-01-27T08:28:42;101859.41;;;5.71;92.34
60465;BME280;46314;52.392;9.758;2023-01-27T08:31:11;101863.94;;;4.88;96.33
60465;BME280;46314;52.392;9.758;2023-01-27T08:33:39;101863.22;;;4.62;95.12
60465;BME280;46314;52.392;9.758;2023-01-27T08:36:08;101875.09;;;4.63;95.65
60465;BME280;46314;52.392;9.758;2023-01-27T08:38:35;101873.47;;;4.55;94.73
60465;BME280;46314;52.392;9.758;2023-01-27T08:41:05;101873.16;;;4.45;95.30
60465;BME280;46314;52.392;9.758;2023-01-27T08:43:32;101875.88;;;5.12;93.43
60465;BME280;46314;52.392;9.758;2023-01-27T08:45:58;101879.25;;;4.65;95.53
60465;BME280;46314;52.392;9.758;2023-01-27T08:48:26;101880.47;;;4.69;97.61
60465;BME280;46314;52.392;9.758;2023-01-27T08:50:52;101881.06;;;4.23;97.41
60465;BME280;46314;52.392;9.758;2023-01-27T08:53:19;101887.72;;;4.64;100.00
60465;BME280;46314;52.392;9.758;2023-01-27T08:55:45;101895.00;;;4.21;97.91
60465;BME280;46314;52.392;9.758;2023-01-27T08:58:13;101879.78;;;3.82;100.00
60465;BME280;46314;52.392;9.758;2023-01-27T09:00:40;101891.06;;;3.48;100.00
60465;BME280;46314;52.392;9.758;2023-01-27T09:03:06;101882.78;;;3.80;100.00
60465;BME280;46314;52.392;9.758;2023-01-27T09:05:34;101900.66;;;3.64;100.00
60465;BME280;46314;52.392;9.758;2023-01-27T09:08:01;101901.03;;;4.11;100.00
60465;BME280;46314;52.392;9.758;2023-01-27T09:10:28;101890.69;;;3.88;99.36
60465;BME280;46314;52.392;9.758;2023-01-27T09:12:54;101904.84;;;3.41;100.00
60465;BME280;46314;52.392;9.758;2023-01-27T09:15:22;101905.72;;;3.86;100.00
60465;BME280;46314;52.392;9.758;2023-01-27T09:17:49;101905.84;;;4.53;96.43
60465;BME280;46314;52.392;9.758;2023-01-27T09:20:16;101906.47;;;4.36;95.98
60465;BME280;46314;52.392;9.758;2023-01-27T09:22:42;101903.34;;;4.33;97.79
60465;BME280;46314;52.392;9.758;2023-01-27T09:25:12;101916.22;;;4.32;96.75
60465;BME280;46314;52.392;9.758;2023-01-27T09:27:39;101911.44;;;4.77;94.19
60465;BME280;46314;52.392;9.758;2023-01-27T09:30:07;101914.69;;;4.73;95.35
60465;BME280;46314;52.392;9.758;2023-01-27T09:32:35;101915.25;;;4.45;95.13
60465;BME280;46314;52.392;9.758;2023-01-27T09:35:03;101910.50;;;3.72;100.00
60465;BME280;46314;52.392;9.758;2023-01-27T09:37:30;101912.31;;;4.22;97.74
60465;BME280;46314;52.392;9.758;2023-01-27T09:40:01;101915.25;;;4.45;98.36
60465;BME280;46314;52.392;9.758;2023-01-27T09:42:45;101913.22;;;5.43;92.52
60465;BME280;46314;52.392;9.758;2023-01-27T09:45:45;101918.63;;;4.78;95.21
60465;BME280;46314;52.392;9.758;2023-01-27T09:48:35;101919.56;;;3.97;96.87
60465;BME280;46314;52.392;9.758;2023-01-27T09:51:12;101920.63;;;4.15;95.75
60465;BME280;46314;52.392;9.758;2023-01-27T09:54:05;101914.03;;;3.54;100.00
60465;BME280;46314;52.392;9.758;2023-01-27T09:56:45;101917.47;;;3.93;99.39
60465;BME280;46314;52.392;9.758;2023-01-27T09:59:28;101924.53;;;4.44;97.12
60465;BME280;46314;52.392;9.758;2023-01-27T10:02:10;101918.19;;;5.65;94.04
60465;BME280;46314;52.392;9.758;2023-01-27T10:05:00;101917.81;;;4.59;94.84
60465;BME280;46314;52.392;9.758;2023-01-27T10:07:44;101920.25;;;4.11;97.24
60465;BME280;46314;52.392;9.758;2023-01-27T10:10:28;101933.56;;;3.64;99.43
60465;BME280;46314;52.392;9.758;2023-01-27T10:13:09;101919.41;;;3.92;99.44
60465;BME280;46314;52.392;9.758;2023-01-27T10:15:51;101916.81;;;3.72;99.84
60465;BME280;46314;52.392;9.758;2023-01-27T10:18:29;101922.31;;;3.72;98.76
60465;BME280;46314;52.392;9.758;2023-01-27T10:21:11;101920.25;;;3.68;99.24
60465;BME280;46314;52.392;9.758;2023-01-27T10:23:50;101920.00;;;4.13;97.94
60465;BME280;46314;52.392;9.758;2023-01-27T10:26:26;101907.75;;;4.34;96.49
60465;BME280;46314;52.392;9.758;2023-01-27T10:28:56;101910.28;;;4.17;96.45
60465;BME280;46314;52.392;9.758;2023-01-27T10:31:24;101909.59;;;3.53;99.59
60465;BME280;46314;52.392;9.758;2023-01-27T10:33:53;101917.63;;;3.22;100.00
60465;BME280;46314;52.392;9.758;2023-01-27T10:36:25;101919.22;;;3.87;99.82
60465;BME280;46314;52.392;9.758;2023-01-27T10:39:00;101911.31;;;3.97;98.28
60465;BME280;46314;52.392;9.758;2023-01-27T10:41:33;101926.59;;;4.12;98.90
60465;BME280;46314;52.392;9.758;2023-01-27T10:44:19;101918.16;;;3.88;97.74
60465;BME280;46314;52.392;9.758;2023-01-27T10:46:52;101937.97;;;3.65;98.38
60465;BME280;46314;52.392;9.758;2023-01-27T10:49:27;101926.94;;;3.97;98.58
60465;BME280;46314;52.392;9.758;2023-01-27T10:52:02;101931.78;;;4.39;95.32
60465;BME280;46314;52.392;9.758;2023-01-27T10:54:34;101938.75;;;3.47;98.57
60465;BME280;46314;52.392;9.758;2023-01-27T10:57:12;101934.34;;;3.71;97.98
60465;BME280;46314;52.392;9.758;2023-01-27T10:59:44;101941.00;;;3.57;98.41
60465;BME280;46314;52.392;9.758;2023-01-27T11:02:37;101933.13;;;4.11;95.18
60465;BME280;46314;52.392;9.758;2023-01-27T11:05:08;101937.75;;;3.67;97.58
60465;BME280;46314;52.392;9.758;2023-01-27T11:07:48;101931.16;;;4.00;96.79
60465;BME280;46314;52.392;9.758;2023-01-27T11:10:17;101937.81;;;3.85;95.74
60465;BME280;46314;52.392;9.758;2023-01-27T11:12:46;101938.53;;;3.74;97.33
60465;BME280;46314;52.392;9.758;2023-01-27T11:15:18;101932.78;;;4.26;93.83
60465;BME280;46314;52.392;9.758;2023-01-27T11:17:49;101933.75;;;4.13;94.76
60465;BME280;46314;52.392;9.758;2023-01-27T11:20:25;101931.78;;;4.39;92.92
60465;BME280;46314;52.392;9.758;2023-01-27T11:22:57;101929.00;;;4.02;93.83
60465;BME280;46314;52.392;9.758;2023-01-27T11:25:28;101922.69;;;4.01;95.61
60465;BME280;46314;52.392;9.758;2023-01-27T11:28:07;101933.63;;;4.63;91.49
60465;BME280;46314;52.392;9.758;2023-01-27T11:30:40;101927.81;;;4.16;92.80
60465;BME280;46314;52.392;9.758;2023-01-27T11:33:15;101932.91;;;4.12;93.07
60465;BME280;46314;52.392;9.758;2023-01-27T11:35:43;101934.06;;;3.79;94.91
60465;BME280;46314;52.392;9.758;2023-01-27T11:38:13;101936.63;;;4.00;93.89
60465;BME280;46314;52.392;9.758;2023-01-27T11:40:42;101935.28;;;4.09;94.11
60465;BME280;46314;52.392;9.758;2023-01-27T11:43:10;101930.31;;;4.36;92.81
60465;BME280;46314;52.392;9.758;2023-01-27T11:45:40;101932.56;;;4.46;93.33
60465;BME280;46314;52.392;9.758;2023-01-27T11:48:11;101934.00;;;4.30;92.06
60465;BME280;46314;52.392;9.758;2023-01-27T11:50:41;101922.63;;;5.12;89.73
60465;BME280;46314;52.392;9.758;2023-01-27T11:53:13;101922.34;;;5.13;88.18
60465;BME280;46314;52.392;9.758;2023-01-27T11:55:42;101931.16;;;3.74;94.07
60465;BME280;46314;52.392;9.758;2023-01-27T11:58:16;101936.53;;;3.63;94.31
60465;BME280;46314;52.392;9.758;2023-01-27T12:00:49;101934.28;;;3.78;93.42
60465;BME280;46314;52.392;9.758;2023-01-27T12:03:22;101916.19;;;3.70;94.21
60465;BME280;46314;52.392;9.758;2023-01-27T12:05:54;101929.91;;;3.70;92.60
60465;BME280;46314;52.392;9.758;2023-01-27T12:08:41;101923.56;;;3.76;92.98
60465;BME280;46314;52.392;9.758;2023-01-27T12:11:17;101912.50;;;3.83;92.80
60465;BME280;46314;52.392;9.758;2023-01-27T12:13:48;101913.75;;;3.87;92.66
60465;BME280;46314;52.392;9.758;2023-01-27T12:16:15;101910.88;;;4.19;90.81
60465;BME280;46314;52.392;9.758;2023-01-27T12:18:48;101914.31;;;4.33;89.88
60465;BME280;46314;52.392;9.758;2023-01-27T12:21:16;101906.16;;;4.93;89.18
60465;BME280;46314;52.392;9.758;2023-01-27T12:23:48;101913.03;;;4.54;88.61
60465;BME280;46314;52.392;9.758;2023-01-27T12:26:28;101907.38;;;4.30;90.49
60465;BME280;46314;52.392;9.758;2023-01-27T12:28:58;101906.94;;;4.82;89.97
60465;BME280;46314;52.392;9.758;2023-01-27T12:31:27;101904.25;;;3.83;91.37
60465;BME280;46314;52.392;9.758;2023-01-27T12:33:58;101907.50;;;3.98;91.21
60465;BME280;46314;52.392;9.758;2023-01-27T12:36:26;101904.34;;;3.76;91.74
60465;BME280;46314;52.392;9.758;2023-01-27T12:38:59;101912.03;;;3.68;92.38
60465;BME280;46314;52.392;9.758;2023-01-27T12:41:28;101907.75;;;3.72;92.26
60465;BME280;46314;52.392;9.758;2023-01-27T12:43:57;101896.84;;;4.46;89.73
60465;BME280;46314;52.392;9.758;2023-01-27T12:46:25;101901.69;;;4.62;86.60
60465;BME280;46314;52.392;9.758;2023-01-27T12:48:53;101901.41;;;5.01;87.08
60465;BME280;46314;52.392;9.758;2023-01-27T12:51:21;101907.06;;;5.83;83.67
60465;BME280;46314;52.392;9.758;2023-01-27T12:53:48;101904.19;;;5.55;83.36
60465;BME280;46314;52.392;9.758;2023-01-27T12:56:19;101902.94;;;5.39;86.51
60465;BME280;46314;52.392;9.758;2023-01-27T12:58:55;101897.97;;;4.75;86.29
60465;BME280;46314;52.392;9.758;2023-01-27T13:01:26;101901.50;;;3.83;92.45
60465;BME280;46314;52.392;9.758;2023-01-27T13:03:55;101898.22;;;4.18;92.43
60465;BME280;46314;52.392;9.758;2023-01-27T13:06:29;101897.19;;;5.28;87.30